createdAt,value
2022-08-12T00:03:03.000Z,9.1
2022-08-12T00:06:39.000Z,4.4
2022-08-12T00:10:12.000Z,7.3
2022-08-12T00:13:45.000Z,5.5
2022-08-12T00:17:18.000Z,6.6
2022-08-12T00:20:50.000Z,7.3
2022-08-12T00:24:23.000Z,6.8
2022-08-12T00:28:22.000Z,6.3
2022-08-12T00:31:55.000Z,5.3
2022-08-12T00:35:50.000Z,5.5
2022-08-12T00:38:43.000Z,4.8
2022-08-12T00:42:15.000Z,5.1
2022-08-12T00:45:54.000Z,5.2
2022-08-12T00:49:27.000Z,5.7
2022-08-12T00:53:00.000Z,5.6
2022-08-12T00:56:32.000Z,5.5
2022-08-12T01:00:05.000Z,8.2
2022-08-12T01:04:11.000Z,5.8
2022-08-12T01:07:43.000Z,5.4
2022-08-12T01:11:16.000Z,6.4
2022-08-12T01:14:49.000Z,6.5
2022-08-12T01:17:40.000Z,7
2022-08-12T01:21:20.000Z,6.1
2022-08-12T01:24:53.000Z,8
2022-08-12T01:28:25.000Z,6.8
2022-08-12T01:31:58.000Z,5.6
2022-08-12T01:35:31.000Z,8.6
2022-08-12T01:39:03.000Z,5.3
2022-08-12T01:42:38.000Z,5.4
2022-08-12T01:46:14.000Z,6.3
2022-08-12T01:49:47.000Z,6.9
2022-08-12T01:54:18.000Z,6.1
2022-08-12T01:57:09.000Z,6
2022-08-12T02:01:25.000Z,6.2
2022-08-12T02:04:57.000Z,5.5
2022-08-12T02:08:30.000Z,6.2
2022-08-12T02:12:03.000Z,5.9
2022-08-12T02:15:48.000Z,5.9
2022-08-12T02:19:54.000Z,6.8
2022-08-12T02:23:27.000Z,7.7
2022-08-12T02:27:00.000Z,6.8
2022-08-12T02:30:32.000Z,8.3
2022-08-12T02:34:07.000Z,6.5
2022-08-12T02:36:58.000Z,6.3
2022-08-12T02:40:31.000Z,7.2
2022-08-12T02:44:04.000Z,7.1
2022-08-12T02:47:36.000Z,8.7
2022-08-12T02:51:26.000Z,7
2022-08-12T02:54:58.000Z,8.3
2022-08-12T02:58:31.000Z,6.8
2022-08-12T03:02:06.000Z,8.5
2022-08-12T03:05:39.000Z,9.9
2022-08-12T03:09:11.000Z,7.1
2022-08-12T03:12:47.000Z,6.5
2022-08-12T03:15:39.000Z,8.6
2022-08-12T03:19:12.000Z,7.1
2022-08-12T03:22:45.000Z,8.8
2022-08-12T03:26:18.000Z,7
2022-08-12T03:29:50.000Z,7.1
2022-08-12T03:33:23.000Z,8.9
2022-08-12T03:36:55.000Z,7.4
2022-08-12T03:40:28.000Z,8.8
2022-08-12T03:44:01.000Z,8
2022-08-12T03:47:51.000Z,7.2
2022-08-12T03:51:23.000Z,7.6
2022-08-12T03:54:14.000Z,7.8
2022-08-12T03:57:47.000Z,8.1
2022-08-12T04:01:20.000Z,8.2
2022-08-12T04:04:52.000Z,7.6
2022-08-12T04:08:34.000Z,7.5
2022-08-12T04:12:07.000Z,7.3
2022-08-12T04:15:40.000Z,9.7
2022-08-12T04:19:12.000Z,8
2022-08-12T04:22:45.000Z,7.7
2022-08-12T04:26:18.000Z,7.9
2022-08-12T04:29:50.000Z,7.4
2022-08-12T04:33:16.000Z,7.8
2022-08-12T04:36:49.000Z,7.5
2022-08-12T04:40:22.000Z,9.2
2022-08-12T04:43:57.000Z,12.4
2022-08-12T04:47:30.000Z,8.6
2022-08-12T04:51:02.000Z,8.7
2022-08-12T04:54:35.000Z,7.2
2022-08-12T04:58:08.000Z,8.8
2022-08-12T05:01:55.000Z,10
2022-08-12T05:07:51.000Z,7.4
2022-08-12T05:11:58.000Z,10.3
2022-08-12T05:14:43.000Z,8.2
2022-08-12T05:18:25.000Z,8.5
2022-08-12T05:22:00.000Z,8.8
2022-08-12T05:25:33.000Z,9.6
2022-08-12T05:29:06.000Z,11.9
2022-08-12T05:33:46.000Z,7.3
2022-08-12T05:37:21.000Z,10.3
2022-08-12T05:40:53.000Z,7.9
2022-08-12T05:44:39.000Z,8.7
2022-08-12T05:48:11.000Z,6.4
2022-08-12T05:51:44.000Z,6.4
2022-08-12T05:54:35.000Z,9.6
2022-08-12T05:58:23.000Z,12.5
2022-08-12T06:01:55.000Z,6.9
2022-08-12T06:05:38.000Z,7.6
2022-08-12T06:09:59.000Z,9.5
2022-08-12T06:13:32.000Z,7.9
2022-08-12T06:17:19.000Z,6.7
2022-08-12T06:20:52.000Z,7.2
2022-08-12T06:24:27.000Z,7.1
2022-08-12T06:28:00.000Z,6.5
2022-08-12T06:32:09.000Z,9.5
2022-08-12T06:35:02.000Z,7.8
2022-08-12T06:38:53.000Z,9.4
2022-08-12T06:42:29.000Z,6.3
2022-08-12T06:46:06.000Z,7.1
2022-08-12T06:49:38.000Z,11.1
2022-08-12T06:53:11.000Z,7.1
2022-08-12T06:56:43.000Z,8.5
2022-08-12T07:00:30.000Z,10.1
2022-08-12T07:04:03.000Z,6.1
2022-08-12T07:08:01.000Z,7.7
2022-08-12T07:12:05.000Z,7.3
2022-08-12T07:14:57.000Z,5.5
2022-08-12T07:18:33.000Z,7
2022-08-12T07:22:06.000Z,7.4
2022-08-12T07:25:38.000Z,6.3
2022-08-12T07:29:11.000Z,6.4
2022-08-12T07:32:44.000Z,6.6
2022-08-12T07:36:16.000Z,6.3
2022-08-12T07:39:49.000Z,6.6
2022-08-12T07:43:26.000Z,6.2
2022-08-12T07:46:59.000Z,4.8
2022-08-12T07:50:31.000Z,7.4
2022-08-12T07:53:23.000Z,6
2022-08-12T07:56:55.000Z,4.5
2022-08-12T08:00:28.000Z,6.7
2022-08-12T08:04:01.000Z,4.7
2022-08-12T08:07:34.000Z,5.4
2022-08-12T08:11:06.000Z,4.6
2022-08-12T08:14:41.000Z,7.5
2022-08-12T08:18:15.000Z,4.9
2022-08-12T08:22:03.000Z,4.7
2022-08-12T08:25:36.000Z,5.2
2022-08-12T08:29:08.000Z,4
2022-08-12T08:31:59.000Z,4.9
2022-08-12T08:36:13.000Z,4
2022-08-12T08:39:49.000Z,5.3
2022-08-12T08:44:18.000Z,3.2
2022-08-12T08:47:50.000Z,4.4
2022-08-12T08:51:25.000Z,4.7
2022-08-12T08:54:58.000Z,4.3
2022-08-12T08:58:31.000Z,5.1
2022-08-12T09:02:03.000Z,3
2022-08-12T09:07:10.000Z,4.6
2022-08-12T09:31:37.000Z,4.9
2022-08-12T09:36:31.000Z,2.5
2022-08-12T09:40:30.000Z,3.9
2022-08-12T09:46:03.000Z,3.3
2022-08-12T09:49:58.000Z,4.7
2022-08-12T09:53:49.000Z,3.3
2022-08-12T09:59:01.000Z,3.3
2022-08-12T10:02:50.000Z,5
2022-08-12T10:06:24.000Z,3.7
2022-08-12T10:10:01.000Z,6.5
2022-08-12T10:14:11.000Z,4.5
2022-08-12T10:17:18.000Z,6.2
2022-08-12T10:20:51.000Z,6.9
2022-08-12T10:24:39.000Z,4.1
2022-08-12T10:28:37.000Z,3.8
2022-08-12T10:32:41.000Z,2.8
2022-08-12T10:36:25.000Z,4.7
2022-08-12T10:42:44.000Z,3.2
2022-08-12T10:46:17.000Z,3.9
2022-08-12T10:50:20.000Z,2.2
2022-08-12T10:54:36.000Z,2.4
2022-08-12T10:58:14.000Z,2.3
2022-08-12T11:01:08.000Z,4.1
2022-08-12T11:10:19.000Z,2.8
2022-08-12T11:14:35.000Z,3.1
2022-08-12T11:18:21.000Z,2.8
2022-08-12T11:21:54.000Z,3.5
2022-08-12T11:25:36.000Z,3
2022-08-12T11:29:28.000Z,3.7
2022-08-12T11:34:01.000Z,3.4
2022-08-12T11:38:21.000Z,1.9
2022-08-12T11:42:05.000Z,2.5
2022-08-12T11:45:57.000Z,3
2022-08-12T11:48:48.000Z,1.7
2022-08-12T11:52:30.000Z,2.7
2022-08-12T11:56:21.000Z,1.7
2022-08-12T12:01:43.000Z,2.4
2022-08-12T12:05:45.000Z,1.6
2022-08-12T12:09:17.000Z,3.3
2022-08-12T12:12:50.000Z,3.5
2022-08-12T12:16:37.000Z,1.9
2022-08-12T12:20:21.000Z,1.4
2022-08-12T12:23:55.000Z,2.6
2022-08-12T12:28:07.000Z,2.1
2022-08-12T12:31:21.000Z,2.5
2022-08-12T12:35:57.000Z,3.2
2022-08-12T12:40:04.000Z,2.6
2022-08-12T12:44:54.000Z,3.8
2022-08-12T12:51:02.000Z,3.9
2022-08-12T12:54:41.000Z,4.5
2022-08-12T12:58:14.000Z,2.5
2022-08-12T13:01:55.000Z,3.1
2022-08-12T13:05:48.000Z,2.8
2022-08-12T13:09:48.000Z,1.6
2022-08-12T13:13:40.000Z,2.2
2022-08-12T13:16:46.000Z,4.3
2022-08-12T13:20:27.000Z,4.8
2022-08-12T13:24:05.000Z,2.1
2022-08-12T13:27:37.000Z,2.5
2022-08-12T13:31:14.000Z,3
2022-08-12T13:34:57.000Z,1.4
2022-08-12T13:38:58.000Z,2.2
2022-08-12T13:42:32.000Z,3
2022-08-12T13:46:09.000Z,1.3
2022-08-12T13:49:44.000Z,2
2022-08-12T13:53:23.000Z,3.2
2022-08-12T13:56:43.000Z,2.5
2022-08-12T14:00:18.000Z,2.6
2022-08-12T14:04:04.000Z,3.1
2022-08-12T14:07:38.000Z,4.4
2022-08-12T14:11:18.000Z,2.9
2022-08-12T14:14:54.000Z,3
2022-08-12T14:18:48.000Z,2.4
2022-08-12T14:22:25.000Z,1.4
2022-08-12T14:26:04.000Z,2.4
2022-08-12T14:30:04.000Z,1.2
2022-08-12T14:33:49.000Z,1.5
2022-08-12T14:36:41.000Z,2.9
2022-08-12T14:40:14.000Z,1.7
2022-08-12T14:43:56.000Z,1.4
2022-08-12T14:48:26.000Z,1.3
2022-08-12T14:58:47.000Z,2.1
2022-08-12T15:02:26.000Z,1.1
2022-08-12T15:06:00.000Z,2.6
2022-08-12T15:10:21.000Z,1.6
2022-08-12T15:14:03.000Z,0.8
2022-08-12T15:17:44.000Z,2.1
2022-08-12T15:20:43.000Z,1.7
2022-08-12T15:24:37.000Z,1.3
2022-08-12T15:28:20.000Z,1.9
2022-08-12T15:31:53.000Z,3.1
2022-08-12T15:35:45.000Z,1.4
2022-08-12T15:40:08.000Z,1.9
2022-08-12T15:44:00.000Z,1.9
2022-08-12T15:48:04.000Z,1.1
2022-08-12T15:51:59.000Z,1.3
2022-08-12T15:55:35.000Z,1
2022-08-12T15:59:15.000Z,3.6
2022-08-12T16:02:43.000Z,1.4
2022-08-12T16:06:16.000Z,0.8
2022-08-12T16:10:26.000Z,1.8
2022-08-12T16:13:59.000Z,4.6
2022-08-12T16:17:40.000Z,2.6
2022-08-12T16:22:03.000Z,0.8
2022-08-12T16:25:54.000Z,1.6
2022-08-12T16:29:37.000Z,4.5
2022-08-12T16:33:22.000Z,1.1
2022-08-12T16:37:00.000Z,2.2
2022-08-12T16:40:34.000Z,2.1
2022-08-12T16:43:30.000Z,2.3
2022-08-12T16:47:06.000Z,1.4
2022-08-12T16:50:39.000Z,1.4
2022-08-12T16:54:12.000Z,1
2022-08-12T16:57:51.000Z,2.2
2022-08-12T17:01:29.000Z,0.9
2022-08-12T17:05:03.000Z,2.1
2022-08-12T17:08:38.000Z,1.4
2022-08-12T17:12:35.000Z,1.1
2022-08-12T17:16:10.000Z,2.1
2022-08-12T17:19:43.000Z,1.5
2022-08-12T17:23:19.000Z,1.7
2022-08-12T17:27:13.000Z,1.5
2022-08-12T17:30:51.000Z,1.6
2022-08-12T17:34:27.000Z,1.5
2022-08-12T17:38:00.000Z,0.7
2022-08-12T17:42:16.000Z,3.6
2022-08-12T17:46:00.000Z,1.2
2022-08-12T17:49:38.000Z,2.6
2022-08-12T17:53:30.000Z,1.8
2022-08-12T17:57:45.000Z,3
2022-08-12T18:01:47.000Z,1.7
2022-08-12T18:04:39.000Z,1.3
2022-08-12T18:08:31.000Z,2.4
2022-08-12T18:12:07.000Z,3.5
2022-08-12T18:15:49.000Z,2.3
2022-08-12T18:19:38.000Z,2.5
2022-08-12T18:24:01.000Z,2.2
2022-08-12T18:28:15.000Z,2
2022-08-12T18:32:02.000Z,3.4
2022-08-12T18:36:18.000Z,1.1
2022-08-12T18:39:52.000Z,2.1
2022-08-12T18:43:26.000Z,2.8
2022-08-12T18:46:43.000Z,1.4
2022-08-12T18:50:20.000Z,1.7
2022-08-12T18:54:15.000Z,1.7
2022-08-12T18:57:58.000Z,1.9
2022-08-12T19:02:01.000Z,3.9
2022-08-12T19:05:47.000Z,4.1
2022-08-12T19:09:20.000Z,4.3
2022-08-12T19:13:25.000Z,3.3
2022-08-12T19:17:03.000Z,4.1
2022-08-12T19:20:39.000Z,4.1
2022-08-12T19:24:27.000Z,3.7
2022-08-12T19:27:20.000Z,4.8
2022-08-12T19:30:58.000Z,2.7
2022-08-12T19:38:32.000Z,3.7
2022-08-12T19:42:32.000Z,3
2022-08-12T19:46:17.000Z,2.4
2022-08-12T19:49:53.000Z,2.2
2022-08-12T19:53:32.000Z,1.5
2022-08-12T19:57:23.000Z,1.6
2022-08-12T20:00:59.000Z,1.8
2022-08-12T20:04:38.000Z,1.4
2022-08-12T20:08:09.000Z,1.3
2022-08-12T20:11:59.000Z,1.4
2022-08-12T20:15:41.000Z,3.7
2022-08-12T20:24:50.000Z,3.2
2022-08-12T20:28:25.000Z,1.8
2022-08-12T20:31:58.000Z,2.5
2022-08-12T20:35:54.000Z,2.1
2022-08-12T20:40:26.000Z,2.1
2022-08-12T20:44:06.000Z,2.3
2022-08-12T20:47:50.000Z,1.6
2022-08-12T20:51:32.000Z,1.1
2022-08-12T20:55:56.000Z,2.1
2022-08-12T20:59:37.000Z,4.5
2022-08-12T21:03:25.000Z,1.5
2022-08-12T21:06:18.000Z,2.8
2022-08-12T21:09:51.000Z,2.1
2022-08-12T21:13:24.000Z,4.7
2022-08-12T21:17:23.000Z,2.9
2022-08-12T21:21:53.000Z,3.4
2022-08-12T21:25:29.000Z,1.8
2022-08-12T21:29:15.000Z,2.5
2022-08-12T21:34:37.000Z,2.6
2022-08-12T21:38:21.000Z,3.2
2022-08-12T21:42:12.000Z,2.4
2022-08-12T21:46:00.000Z,4.6
2022-08-12T21:49:07.000Z,2
2022-08-12T21:53:22.000Z,2.2
2022-08-12T21:59:41.000Z,2.7
2022-08-12T22:03:21.000Z,2
2022-08-12T22:07:36.000Z,3.2
2022-08-12T22:11:27.000Z,1.7
2022-08-12T22:16:07.000Z,2.3
2022-08-12T22:19:54.000Z,1.9
2022-08-12T22:23:27.000Z,1.7
2022-08-12T22:27:31.000Z,1.9
2022-08-12T22:31:03.000Z,2.1
2022-08-12T22:33:52.000Z,2.1
2022-08-12T22:37:53.000Z,2.3
2022-08-12T22:41:30.000Z,2.2
2022-08-12T22:45:14.000Z,3.8
2022-08-12T22:48:52.000Z,2.2
2022-08-12T22:52:27.000Z,3.9
2022-08-12T22:56:00.000Z,2.8
2022-08-12T22:59:53.000Z,4.1
2022-08-12T23:04:00.000Z,3.1
2022-08-12T23:08:04.000Z,3.1
2022-08-12T23:11:47.000Z,3
2022-08-12T23:14:43.000Z,2.4
2022-08-12T23:18:28.000Z,2
2022-08-12T23:22:00.000Z,3.4
2022-08-12T23:26:09.000Z,2
2022-08-12T23:29:51.000Z,1.9
2022-08-12T23:34:02.000Z,2.5
2022-08-12T23:38:01.000Z,2.7
2022-08-12T23:42:16.000Z,9.9
2022-08-12T23:46:00.000Z,2.3
2022-08-12T23:49:37.000Z,4
2022-08-12T23:53:24.000Z,3.4
2022-08-12T23:56:16.000Z,5.2
